createdAt,value
2023-04-06T00:00:41.771Z,13.50
2023-04-06T00:04:52.053Z,13.43
2023-04-06T00:08:54.190Z,13.63
2023-04-06T00:12:57.611Z,15.10
2023-04-06T00:16:59.810Z,13.38
2023-04-06T00:21:02.063Z,12.75
2023-04-06T00:25:04.503Z,13.38
2023-04-06T00:29:06.987Z,13.45
2023-04-06T00:33:09.233Z,12.20
2023-04-06T00:37:13.117Z,13.98
2023-04-06T00:41:15.571Z,14.45
2023-04-06T00:45:17.780Z,14.52
2023-04-06T00:49:20.046Z,15.75
2023-04-06T00:53:22.694Z,16.15
2023-04-06T00:57:25.434Z,16.73
2023-04-06T01:01:33.347Z,14.70
2023-04-06T01:05:41.813Z,14.65
2023-04-06T01:09:54.791Z,15.02
2023-04-06T01:14:00.805Z,15.95
2023-04-06T01:18:18.850Z,14.73
2023-04-06T01:22:31.839Z,14.05
2023-04-06T01:26:39.323Z,14.38
2023-04-06T01:30:44.259Z,12.57
2023-04-06T01:34:58.170Z,12.25
2023-04-06T01:39:00.804Z,11.25
2023-04-06T01:43:09.286Z,11.07
2023-04-06T01:47:22.214Z,10.95
2023-04-06T01:51:25.964Z,9.77
2023-04-06T01:55:32.277Z,9.57
2023-04-06T01:59:53.227Z,8.85
2023-04-06T02:04:05.053Z,8.98
2023-04-06T02:08:07.702Z,9.15
2023-04-06T02:12:13.042Z,8.25
2023-04-06T02:16:15.862Z,9.07
2023-04-06T02:20:19.945Z,8.80
2023-04-06T02:24:21.955Z,8.60
2023-04-06T02:28:24.052Z,8.55
2023-04-06T02:32:26.416Z,8.93
2023-04-06T02:36:29.241Z,10.27
2023-04-06T02:40:31.250Z,9.38
2023-04-06T02:44:38.602Z,9.90
2023-04-06T02:48:40.669Z,9.70
2023-04-06T02:52:42.747Z,9.43
2023-04-06T02:56:47.409Z,8.65
2023-04-06T03:00:49.679Z,11.73
2023-04-06T03:04:51.806Z,9.88
2023-04-06T03:09:00.872Z,10.57
2023-04-06T03:13:02.936Z,11.80
2023-04-06T03:17:18.033Z,11.68
2023-04-06T03:21:21.300Z,11.63
2023-04-06T03:25:27.948Z,11.20
2023-04-06T03:29:35.006Z,13.00
2023-04-06T03:33:37.317Z,10.75
2023-04-06T03:37:39.448Z,11.38
2023-04-06T03:41:41.608Z,12.55
2023-04-06T03:45:56.953Z,12.02
2023-04-06T03:49:59.216Z,11.38
2023-04-06T03:54:01.414Z,11.32
2023-04-06T03:58:03.589Z,11.02
2023-04-06T04:02:05.380Z,12.90
2023-04-06T04:06:07.557Z,12.07
2023-04-06T04:10:10.000Z,12.05
2023-04-06T04:14:12.196Z,12.55
2023-04-06T04:18:15.087Z,11.65
2023-04-06T04:22:17.167Z,12.68
2023-04-06T04:26:19.913Z,14.40
2023-04-06T04:30:22.569Z,11.48
2023-04-06T04:34:27.518Z,12.18
2023-04-06T04:38:30.502Z,11.05
2023-04-06T04:42:33.227Z,12.32
2023-04-06T04:46:36.921Z,12.82
2023-04-06T04:50:39.940Z,11.30
2023-04-06T04:54:42.441Z,12.40
2023-04-06T04:58:48.802Z,12.85
2023-04-06T05:02:51.145Z,10.82
2023-04-06T05:07:04.813Z,10.55
2023-04-06T05:11:07.280Z,10.88
2023-04-06T05:15:14.082Z,10.07
2023-04-06T05:19:17.170Z,10.13
2023-04-06T05:23:21.556Z,9.55
2023-04-06T05:27:25.469Z,9.13
2023-04-06T05:31:28.488Z,9.20
2023-04-06T05:35:30.579Z,9.13
2023-04-06T05:39:37.197Z,8.02
2023-04-06T05:43:39.394Z,8.48
2023-04-06T05:47:41.519Z,7.68
2023-04-06T05:51:56.047Z,7.50
2023-04-06T05:55:58.198Z,7.53
2023-04-06T06:00:02.049Z,7.03
2023-04-06T06:04:14.510Z,6.97
2023-04-06T06:08:17.141Z,7.40
2023-04-06T06:12:19.931Z,6.80
2023-04-06T06:16:24.313Z,7.50
2023-04-06T06:20:26.710Z,6.85
2023-04-06T06:24:31.484Z,6.95
2023-04-06T06:28:35.342Z,7.40
2023-04-06T06:32:37.659Z,6.20
2023-04-06T06:36:39.942Z,6.32
2023-04-06T06:40:46.011Z,5.45
2023-04-06T06:44:48.743Z,5.22
2023-04-06T06:48:51.098Z,5.95
2023-04-06T06:52:53.356Z,5.35
2023-04-06T06:56:55.931Z,5.97
2023-04-06T07:00:59.333Z,4.90
2023-04-06T07:05:10.184Z,4.93
2023-04-06T07:09:18.738Z,5.15
2023-04-06T07:13:24.847Z,4.80
2023-04-06T07:17:30.383Z,4.88
2023-04-06T07:21:32.522Z,4.65
2023-04-06T07:25:34.642Z,4.75
2023-04-06T07:29:37.940Z,5.43
2023-04-06T07:33:41.005Z,5.03
2023-04-06T07:37:43.645Z,4.38
2023-04-06T07:41:45.801Z,4.32
2023-04-06T07:45:47.705Z,5.38
2023-04-06T07:49:52.172Z,4.78
2023-04-06T07:53:54.747Z,5.43
2023-04-06T07:57:56.925Z,4.13
2023-04-06T08:01:59.027Z,4.95
2023-04-06T08:06:01.308Z,4.30
2023-04-06T08:10:03.708Z,3.95
2023-04-06T08:14:05.761Z,4.65
2023-04-06T08:18:07.912Z,5.55
2023-04-06T08:22:09.955Z,4.88
2023-04-06T08:26:12.157Z,6.47
2023-04-06T08:30:16.230Z,5.10
2023-04-06T08:34:18.325Z,4.97
2023-04-06T08:38:20.408Z,5.40
2023-04-06T08:42:26.264Z,6.47
2023-04-06T08:46:31.609Z,5.50
2023-04-06T08:50:34.567Z,5.45
2023-04-06T08:54:36.669Z,4.97
2023-04-06T08:58:41.554Z,4.97
2023-04-06T09:02:46.407Z,5.55
2023-04-06T09:06:48.820Z,5.47
2023-04-06T09:10:52.926Z,5.78
2023-04-06T09:14:56.968Z,6.28
2023-04-06T09:19:05.636Z,6.10
2023-04-06T09:23:07.806Z,6.15
2023-04-06T09:27:09.875Z,6.80
2023-04-06T09:31:13.551Z,5.68
2023-04-06T09:35:16.395Z,5.63
2023-04-06T09:39:27.212Z,5.22
2023-04-06T09:43:29.868Z,6.07
2023-04-06T09:47:32.417Z,6.03
2023-04-06T09:51:39.727Z,6.15
2023-04-06T09:55:44.492Z,5.37
2023-04-06T10:00:12.803Z,5.80
2023-04-06T10:04:31.720Z,6.63
2023-04-06T10:12:40.856Z,7.18
2023-04-06T10:16:43.587Z,6.82
2023-04-06T10:20:52.599Z,6.78
2023-04-06T10:24:54.857Z,6.70
2023-04-06T10:29:04.436Z,7.07
2023-04-06T10:33:21.614Z,6.45
2023-04-06T10:37:23.469Z,6.72
2023-04-06T10:41:33.823Z,6.40
2023-04-06T10:45:38.376Z,7.72
2023-04-06T10:49:40.508Z,7.38
2023-04-06T10:53:44.786Z,7.47
2023-04-06T10:57:47.584Z,7.75
2023-04-06T11:01:49.989Z,7.70
2023-04-06T11:05:52.524Z,7.78
2023-04-06T11:10:12.697Z,8.52
2023-04-06T11:14:16.740Z,8.90
2023-04-06T11:18:18.909Z,6.95
2023-04-06T11:22:21.325Z,6.72
2023-04-06T11:26:23.467Z,7.28
2023-04-06T11:30:25.368Z,6.88
2023-04-06T11:34:30.352Z,7.30
2023-04-06T11:38:32.865Z,6.85
2023-04-06T11:42:35.670Z,8.05
2023-04-06T11:46:37.595Z,7.47
2023-04-06T11:50:39.928Z,9.02
2023-04-06T11:54:42.031Z,7.20
2023-04-06T11:58:44.133Z,7.20
2023-04-06T12:02:48.011Z,6.63
2023-04-06T12:06:50.441Z,6.72
2023-04-06T12:10:52.508Z,6.70
2023-04-06T12:14:54.696Z,7.05
2023-04-06T12:18:57.011Z,6.30
2023-04-06T12:22:59.153Z,6.15
2023-04-06T12:27:09.221Z,6.03
2023-04-06T12:31:22.732Z,7.93
2023-04-06T12:35:24.675Z,7.10
2023-04-06T12:39:28.797Z,7.53
2023-04-06T12:43:30.946Z,6.47
2023-04-06T12:47:33.441Z,6.38
2023-04-06T12:51:35.795Z,7.63
2023-04-06T12:55:37.802Z,7.18
2023-04-06T12:59:39.991Z,6.85
2023-04-06T13:03:42.837Z,7.35
2023-04-06T13:07:45.620Z,7.15
2023-04-06T13:11:47.804Z,7.35
2023-04-06T13:15:50.385Z,8.73
2023-04-06T13:19:52.424Z,7.45
2023-04-06T13:23:54.532Z,6.97
2023-04-06T13:27:56.692Z,10.48
2023-04-06T13:31:58.895Z,8.10
2023-04-06T13:36:01.106Z,8.60
2023-04-06T13:40:05.701Z,9.00
2023-04-06T13:44:07.724Z,9.43
2023-04-06T13:48:09.754Z,9.07
2023-04-06T13:52:11.988Z,9.18
2023-04-06T13:56:13.999Z,9.90
2023-04-06T14:00:16.201Z,10.82
2023-04-06T14:04:18.218Z,9.98
2023-04-06T14:08:20.405Z,10.45
2023-04-06T14:12:22.543Z,11.38
2023-04-06T14:16:25.198Z,10.38
2023-04-06T14:20:27.223Z,10.07
2023-04-06T14:24:29.305Z,8.65
2023-04-06T14:28:32.307Z,10.82
2023-04-06T14:32:34.403Z,11.15
2023-04-06T14:36:37.280Z,9.77
2023-04-06T14:40:39.350Z,9.35
2023-04-06T14:44:43.880Z,9.82
2023-04-06T14:48:46.411Z,9.60
2023-04-06T14:52:48.404Z,9.52
2023-04-06T14:56:50.360Z,9.18
2023-04-06T15:00:59.753Z,10.48
2023-04-06T15:05:02.092Z,10.02
2023-04-06T15:09:04.133Z,10.65
2023-04-06T15:13:06.323Z,11.23
2023-04-06T15:17:08.418Z,12.70
2023-04-06T15:21:10.525Z,11.75
2023-04-06T15:25:12.796Z,10.55
2023-04-06T15:29:14.947Z,11.30
2023-04-06T15:33:17.046Z,12.48
2023-04-06T15:37:19.154Z,11.60
2023-04-06T15:41:21.284Z,12.23
2023-04-06T15:45:23.293Z,11.35
2023-04-06T15:49:25.273Z,11.95
2023-04-06T15:53:27.892Z,13.38
2023-04-06T15:57:30.071Z,13.07
2023-04-06T16:01:32.230Z,11.98
2023-04-06T16:05:35.007Z,13.65
2023-04-06T16:09:46.108Z,15.52
2023-04-06T16:13:54.601Z,14.80
2023-04-06T16:17:57.778Z,15.05
2023-04-06T16:21:59.810Z,16.27
2023-04-06T16:26:01.967Z,15.95
2023-04-06T16:30:04.918Z,15.18
2023-04-06T16:34:07.198Z,15.95
2023-04-06T16:38:09.261Z,15.13
2023-04-06T16:42:11.549Z,18.48
2023-04-06T16:46:13.962Z,19.83
2023-04-06T16:50:16.447Z,21.48
2023-04-06T16:54:18.599Z,19.70
2023-04-06T16:58:20.956Z,20.63
2023-04-06T17:02:24.373Z,24.77
2023-04-06T17:06:27.757Z,20.98
2023-04-06T17:10:34.261Z,23.27
2023-04-06T17:14:42.563Z,23.30
2023-04-06T17:18:44.614Z,26.20
2023-04-06T17:22:47.211Z,21.17
2023-04-06T17:26:49.265Z,19.52
2023-04-06T17:30:51.573Z,20.08
2023-04-06T17:34:54.205Z,19.52
2023-04-06T17:38:56.364Z,21.02
2023-04-06T17:42:58.552Z,23.27
2023-04-06T17:47:00.772Z,22.52
2023-04-06T17:51:02.981Z,22.70
2023-04-06T17:55:05.630Z,23.17
2023-04-06T17:59:10.466Z,28.98
2023-04-06T18:03:12.791Z,22.08
2023-04-06T18:07:14.852Z,25.23
2023-04-06T18:11:19.023Z,23.70
2023-04-06T18:15:21.355Z,22.77
2023-04-06T18:19:23.692Z,22.60
2023-04-06T18:23:26.119Z,24.50
2023-04-06T18:27:28.966Z,25.48
2023-04-06T18:31:31.508Z,22.20
2023-04-06T18:35:33.604Z,25.45
2023-04-06T18:39:36.148Z,26.98
2023-04-06T18:43:40.186Z,27.40
2023-04-06T18:47:42.534Z,28.90
2023-04-06T18:51:44.722Z,26.65
2023-04-06T18:55:47.156Z,24.80
2023-04-06T18:59:49.571Z,24.27
2023-04-06T19:03:53.961Z,25.63
2023-04-06T19:07:56.530Z,24.40
2023-04-06T19:11:58.690Z,24.73
2023-04-06T19:16:01.745Z,24.38
2023-04-06T19:20:04.143Z,23.27
2023-04-06T19:24:06.976Z,24.25
2023-04-06T19:28:10.729Z,26.58
2023-04-06T19:32:12.879Z,28.20
2023-04-06T19:36:16.039Z,24.33
2023-04-06T19:40:18.217Z,24.58
2023-04-06T19:44:20.630Z,26.55
2023-04-06T19:48:22.944Z,22.80
2023-04-06T19:52:25.335Z,23.95
2023-04-06T19:56:27.637Z,21.95
2023-04-06T20:00:29.858Z,25.08
2023-04-06T20:04:31.929Z,25.35
2023-04-06T20:08:34.055Z,25.33
2023-04-06T20:12:36.120Z,28.27
2023-04-06T20:16:38.259Z,26.95
2023-04-06T20:20:40.452Z,26.45
2023-04-06T20:24:42.512Z,24.83
2023-04-06T20:28:44.917Z,27.95
2023-04-06T20:32:46.923Z,29.73
2023-04-06T20:36:49.229Z,29.02
2023-04-06T20:40:51.700Z,28.95
2023-04-06T20:44:53.938Z,35.55
2023-04-06T20:48:56.256Z,34.85
2023-04-06T20:52:58.345Z,34.22
2023-04-06T20:57:00.988Z,33.25
2023-04-06T21:01:03.058Z,37.53
2023-04-06T21:05:05.367Z,37.88
2023-04-06T21:09:07.406Z,37.60
2023-04-06T21:13:09.531Z,37.92
2023-04-06T21:17:12.003Z,39.92
2023-04-06T21:21:14.219Z,41.78
2023-04-06T21:25:16.355Z,42.38
2023-04-06T21:29:18.468Z,41.60
2023-04-06T21:33:20.818Z,43.58
2023-04-06T21:37:22.898Z,42.97
2023-04-06T21:41:24.977Z,43.00
2023-04-06T21:45:27.104Z,43.75
2023-04-06T21:49:30.563Z,41.83
2023-04-06T21:53:32.581Z,46.95
2023-04-06T21:57:35.802Z,44.30
2023-04-06T22:01:38.849Z,45.10
2023-04-06T22:05:40.844Z,45.92
2023-04-06T22:09:50.339Z,40.35
2023-04-06T22:13:53.417Z,43.17
2023-04-06T22:17:55.446Z,40.58
2023-04-06T22:21:57.547Z,41.40
2023-04-06T22:25:59.762Z,40.72
2023-04-06T22:30:02.000Z,42.67
2023-04-06T22:34:04.177Z,40.38
2023-04-06T22:38:06.342Z,40.38
2023-04-06T22:42:08.059Z,38.88
2023-04-06T22:46:10.097Z,37.33
2023-04-06T22:50:12.200Z,39.10
2023-04-06T22:54:14.492Z,42.53
2023-04-06T22:58:16.692Z,39.67
2023-04-06T23:02:18.525Z,42.70
2023-04-06T23:06:20.648Z,41.72
2023-04-06T23:10:22.415Z,40.92
2023-04-06T23:14:24.404Z,40.35
2023-04-06T23:18:26.423Z,40.20
2023-04-06T23:22:28.496Z,41.63
2023-04-06T23:26:30.595Z,44.85
2023-04-06T23:30:32.564Z,43.95
2023-04-06T23:34:34.603Z,43.55
2023-04-06T23:38:36.748Z,45.08
2023-04-06T23:42:38.891Z,43.83
2023-04-06T23:46:40.926Z,43.92
2023-04-06T23:50:43.013Z,42.47
2023-04-06T23:54:44.974Z,45.08
2023-04-06T23:58:47.051Z,43.55
